createdAt,value
2018-02-08T00:00:55.502Z,-2.50
2018-02-08T00:03:23.368Z,-2.40
2018-02-08T00:05:51.027Z,-2.50
2018-02-08T00:08:19.148Z,-2.50
2018-02-08T00:10:47.680Z,-2.60
2018-02-08T00:13:15.325Z,-2.60
2018-02-08T00:15:43.033Z,-2.60
2018-02-08T00:18:10.866Z,-2.60
2018-02-08T00:20:38.692Z,-2.70
2018-02-08T00:23:06.356Z,-2.80
2018-02-08T00:25:34.072Z,-2.80
2018-02-08T00:28:01.753Z,-2.80
2018-02-08T00:30:30.300Z,-2.90
2018-02-08T00:32:58.571Z,-2.90
2018-02-08T00:35:27.232Z,-3.00
2018-02-08T00:37:54.942Z,-2.90
2018-02-08T00:40:23.540Z,-3.00
2018-02-08T00:42:51.978Z,-3.00
2018-02-08T00:45:20.406Z,-3.00
2018-02-08T00:47:48.850Z,-3.00
2018-02-08T00:50:16.511Z,-3.00
2018-02-08T00:52:44.265Z,-3.10
2018-02-08T00:55:11.925Z,-3.10
2018-02-08T00:57:39.593Z,-3.00
2018-02-08T01:00:07.711Z,-3.10
2018-02-08T01:02:36.964Z,-3.10
2018-02-08T01:05:05.203Z,-3.10
2018-02-08T01:07:33.099Z,-3.10
2018-02-08T01:10:00.761Z,-3.10
2018-02-08T01:12:28.522Z,-3.10
2018-02-08T01:14:56.445Z,-3.10
2018-02-08T01:17:24.388Z,-3.10
2018-02-08T01:19:52.120Z,-3.10
2018-02-08T01:22:19.801Z,-3.10
2018-02-08T01:24:47.491Z,-3.10
2018-02-08T01:27:15.957Z,-3.20
2018-02-08T01:29:43.624Z,-3.20
2018-02-08T01:32:11.454Z,-3.20
2018-02-08T01:34:39.105Z,-3.30
2018-02-08T01:37:07.745Z,-3.30
2018-02-08T01:39:36.275Z,-3.30
2018-02-08T01:42:04.304Z,-3.30
2018-02-08T01:44:33.846Z,-3.30
2018-02-08T01:47:01.550Z,-3.30
2018-02-08T01:49:41.947Z,-3.40
2018-02-08T01:52:09.605Z,-3.40
2018-02-08T01:54:37.265Z,-3.40
2018-02-08T01:57:04.956Z,-3.40
2018-02-08T01:59:32.721Z,-3.40
2018-02-08T02:02:00.376Z,-3.40
2018-02-08T02:04:28.143Z,-3.40
2018-02-08T02:06:56.016Z,-3.50
2018-02-08T02:09:23.678Z,-3.50
2018-02-08T02:11:51.384Z,-3.50
2018-02-08T02:14:20.685Z,-3.50
2018-02-08T02:16:49.089Z,-3.50
2018-02-08T02:19:16.878Z,-3.60
2018-02-08T02:21:44.572Z,-3.60
2018-02-08T02:24:12.510Z,-3.60
2018-02-08T02:26:40.184Z,-3.50
2018-02-08T02:29:08.548Z,-3.60
2018-02-08T02:31:36.415Z,-3.60
2018-02-08T02:34:04.634Z,-3.60
2018-02-08T02:36:32.454Z,-3.60
2018-02-08T02:39:01.102Z,-3.60
2018-02-08T02:41:29.828Z,-3.70
2018-02-08T02:43:58.160Z,-3.70
2018-02-08T02:46:26.832Z,-3.70
2018-02-08T02:48:54.659Z,-3.70
2018-02-08T02:51:22.670Z,-3.80
2018-02-08T02:53:51.101Z,-3.80
2018-02-08T02:56:18.855Z,-3.80
2018-02-08T02:58:47.072Z,-3.90
2018-02-08T03:01:15.489Z,-3.90
2018-02-08T03:03:43.495Z,-3.90
2018-02-08T03:06:12.627Z,-4.00
2018-02-08T03:08:41.152Z,-4.00
2018-02-08T03:11:09.121Z,-4.00
2018-02-08T03:13:36.827Z,-4.00
2018-02-08T03:16:06.091Z,-4.00
2018-02-08T03:18:34.584Z,-4.10
2018-02-08T03:21:02.944Z,-4.10
2018-02-08T03:23:30.626Z,-4.10
2018-02-08T03:25:59.899Z,-4.10
2018-02-08T03:28:27.663Z,-4.10
2018-02-08T03:30:59.934Z,-4.10
2018-02-08T03:33:27.956Z,-4.10
2018-02-08T03:35:56.380Z,-4.10
2018-02-08T03:38:24.804Z,-4.10
2018-02-08T03:40:53.255Z,-4.00
2018-02-08T03:43:20.896Z,-4.10
2018-02-08T03:45:48.766Z,-4.00
2018-02-08T03:48:17.245Z,-4.00
2018-02-08T03:50:45.726Z,-4.00
2018-02-08T03:53:13.439Z,-4.00
2018-02-08T03:55:41.970Z,-3.90
2018-02-08T03:58:10.348Z,-4.00
2018-02-08T04:00:38.595Z,-3.90
2018-02-08T04:03:06.844Z,-3.90
2018-02-08T04:05:35.480Z,-3.90
2018-02-08T04:08:03.960Z,-3.90
2018-02-08T04:10:32.132Z,-3.90
2018-02-08T04:12:59.843Z,-3.80
2018-02-08T04:15:28.679Z,-3.70
2018-02-08T04:17:56.648Z,-3.80
2018-02-08T04:20:24.348Z,-3.60
2018-02-08T04:22:52.076Z,-3.60
2018-02-08T04:25:19.840Z,-3.50
2018-02-08T04:27:47.706Z,-3.50
2018-02-08T04:30:15.571Z,-3.50
2018-02-08T04:32:43.598Z,-3.50
2018-02-08T04:35:11.805Z,-3.50
2018-02-08T04:37:39.644Z,-3.60
2018-02-08T04:40:19.821Z,-3.60
2018-02-08T04:43:00.181Z,-3.60
2018-02-08T04:45:42.505Z,-3.60
2018-02-08T04:48:11.190Z,-3.60
2018-02-08T04:50:38.840Z,-3.60
2018-02-08T04:53:07.069Z,-3.60
2018-02-08T04:55:36.153Z,-3.60
2018-02-08T04:58:04.694Z,-3.70
2018-02-08T05:00:32.353Z,-3.70
2018-02-08T05:03:00.034Z,-3.70
2018-02-08T05:05:27.883Z,-3.70
2018-02-08T05:07:56.206Z,-3.80
2018-02-08T05:10:24.938Z,-3.80
2018-02-08T05:12:52.641Z,-3.80
2018-02-08T05:15:20.284Z,-3.80
2018-02-08T05:17:48.235Z,-3.80
2018-02-08T05:20:18.810Z,-3.90
2018-02-08T05:22:46.628Z,-3.90
2018-02-08T05:25:14.700Z,-3.90
2018-02-08T05:27:42.565Z,-3.90
2018-02-08T05:30:10.273Z,-3.90
2018-02-08T05:32:38.757Z,-3.90
2018-02-08T05:35:07.221Z,-3.90
2018-02-08T05:37:35.565Z,-3.90
2018-02-08T05:40:03.330Z,-4.00
2018-02-08T05:42:31.485Z,-3.90
2018-02-08T05:44:59.913Z,-4.00
2018-02-08T05:47:27.573Z,-4.00
2018-02-08T05:49:55.405Z,-4.00
2018-02-08T05:52:23.277Z,-4.00
2018-02-08T05:54:51.549Z,-4.00
2018-02-08T05:57:19.358Z,-4.00
2018-02-08T05:59:47.812Z,-4.00
2018-02-08T06:02:15.604Z,-4.00
2018-02-08T06:04:44.137Z,-4.10
2018-02-08T06:07:11.801Z,-4.10
2018-02-08T06:09:39.663Z,-4.10
2018-02-08T06:12:07.431Z,-4.20
2018-02-08T06:14:35.292Z,-4.20
2018-02-08T06:17:02.988Z,-4.10
2018-02-08T06:19:32.193Z,-4.20
2018-02-08T06:22:00.735Z,-4.10
2018-02-08T06:24:28.528Z,-4.10
2018-02-08T06:26:56.908Z,-4.20
2018-02-08T06:29:24.644Z,-4.10
2018-02-08T06:31:52.332Z,-4.10
2018-02-08T06:34:20.170Z,-4.10
2018-02-08T06:36:48.085Z,-4.20
2018-02-08T06:39:16.444Z,-4.10
2018-02-08T06:41:44.229Z,-4.10
2018-02-08T06:44:12.715Z,-4.00
2018-02-08T06:46:40.375Z,-4.10
2018-02-08T06:49:08.099Z,-4.00
2018-02-08T06:51:35.780Z,-3.90
2018-02-08T06:54:04.432Z,-3.90
2018-02-08T06:56:32.077Z,-3.90
2018-02-08T06:58:59.961Z,-3.90
2018-02-08T07:01:27.815Z,-3.90
2018-02-08T07:03:56.203Z,-3.80
2018-02-08T07:06:24.134Z,-3.80
2018-02-08T07:08:52.190Z,-3.70
2018-02-08T07:11:19.924Z,-3.70
2018-02-08T07:13:47.625Z,-3.70
2018-02-08T07:16:15.281Z,-3.70
2018-02-08T07:18:43.172Z,-3.70
2018-02-08T07:21:10.876Z,-3.70
2018-02-08T07:23:38.708Z,-3.60
2018-02-08T07:26:07.085Z,-3.50
2018-02-08T07:28:35.088Z,-3.40
2018-02-08T07:31:02.848Z,-3.30
2018-02-08T07:33:30.583Z,-3.30
2018-02-08T07:35:58.344Z,-3.30
2018-02-08T07:38:26.716Z,-3.30
2018-02-08T07:40:54.744Z,-3.20
2018-02-08T07:43:23.519Z,-3.10
2018-02-08T07:45:52.068Z,-3.00
2018-02-08T07:48:20.690Z,-3.00
2018-02-08T07:50:49.177Z,-3.00
2018-02-08T07:53:17.705Z,-3.00
2018-02-08T07:55:45.822Z,-3.00
2018-02-08T07:58:14.414Z,-3.00
2018-02-08T08:00:42.096Z,-3.00
2018-02-08T08:03:09.988Z,-3.00
2018-02-08T08:05:37.705Z,-2.90
2018-02-08T08:08:06.180Z,-2.80
2018-02-08T08:10:34.769Z,-2.80
2018-02-08T08:13:03.432Z,-2.80
2018-02-08T08:15:33.127Z,-2.80
2018-02-08T08:18:01.586Z,-2.70
2018-02-08T08:20:30.066Z,-2.60
2018-02-08T08:22:57.930Z,-2.60
2018-02-08T08:25:25.648Z,-2.50
2018-02-08T08:27:54.441Z,-2.50
2018-02-08T08:30:22.245Z,-2.50
2018-02-08T08:32:52.816Z,-2.50
2018-02-08T08:35:20.702Z,-2.30
2018-02-08T08:37:48.426Z,-2.20
2018-02-08T08:40:16.275Z,-2.10
2018-02-08T08:42:44.031Z,-2.00
2018-02-08T08:45:11.817Z,-1.90
2018-02-08T08:47:40.217Z,-1.80
2018-02-08T08:50:08.652Z,-1.60
2018-02-08T08:52:36.445Z,-1.60
2018-02-08T08:55:04.282Z,-1.50
2018-02-08T08:57:32.045Z,-1.50
2018-02-08T08:59:59.813Z,-1.50
2018-02-08T09:02:27.677Z,-1.40
2018-02-08T09:04:55.437Z,-1.40
2018-02-08T09:07:24.105Z,-1.40
2018-02-08T09:09:51.888Z,-1.30
2018-02-08T09:12:19.660Z,-1.20
2018-02-08T09:14:47.354Z,-1.10
2018-02-08T09:17:15.801Z,-1.10
2018-02-08T09:19:43.657Z,-1.10
2018-02-08T09:22:11.521Z,-1.00
2018-02-08T09:24:39.341Z,-0.90
2018-02-08T09:27:07.975Z,-0.80
2018-02-08T09:29:35.768Z,-0.80
2018-02-08T09:32:34.151Z,-0.50
2018-02-08T09:35:03.947Z,-0.60
2018-02-08T09:37:32.630Z,-0.20
2018-02-08T09:40:00.299Z,-0.20
2018-02-08T09:42:28.065Z,-0.10
2018-02-08T09:44:55.899Z,0.00
2018-02-08T09:47:24.569Z,0.20
2018-02-08T09:49:53.070Z,0.40
2018-02-08T09:52:21.342Z,0.40
2018-02-08T09:54:49.338Z,0.50
2018-02-08T09:57:18.656Z,0.40
2018-02-08T09:59:47.809Z,0.30
2018-02-08T10:02:15.649Z,0.30
2018-02-08T10:04:43.439Z,0.30
2018-02-08T10:07:11.205Z,0.50
2018-02-08T10:09:39.067Z,0.70
2018-02-08T10:12:06.736Z,0.80
2018-02-08T10:14:34.702Z,0.90
2018-02-08T10:17:02.363Z,1.00
2018-02-08T10:19:30.735Z,1.00
2018-02-08T10:21:58.530Z,1.00
2018-02-08T10:24:27.178Z,1.00
2018-02-08T10:26:54.866Z,0.90
2018-02-08T10:29:22.750Z,1.10
2018-02-08T10:31:51.287Z,1.20
2018-02-08T10:34:19.893Z,1.20
2018-02-08T10:36:47.548Z,1.20
2018-02-08T10:39:16.141Z,1.30
2018-02-08T10:41:44.826Z,1.50
2018-02-08T10:44:12.605Z,1.40
2018-02-08T10:46:41.688Z,1.60
2018-02-08T10:49:09.524Z,1.60
2018-02-08T10:51:37.285Z,1.70
2018-02-08T10:54:05.089Z,1.80
2018-02-08T10:56:33.678Z,1.80
2018-02-08T10:59:02.217Z,1.80
2018-02-08T11:01:30.613Z,1.80
2018-02-08T11:03:58.352Z,2.00
2018-02-08T11:06:26.426Z,2.00
2018-02-08T11:08:55.010Z,2.00
2018-02-08T11:11:23.522Z,2.10
2018-02-08T11:13:51.429Z,2.10
2018-02-08T11:16:19.322Z,2.20
2018-02-08T11:18:47.663Z,2.20
2018-02-08T11:21:15.361Z,2.30
2018-02-08T11:23:43.079Z,2.30
2018-02-08T11:26:10.791Z,2.20
2018-02-08T11:28:38.519Z,2.20
2018-02-08T11:31:06.552Z,2.20
2018-02-08T11:33:34.997Z,2.20
2018-02-08T11:36:03.019Z,2.20
2018-02-08T11:38:30.932Z,2.20
2018-02-08T11:40:59.338Z,2.00
2018-02-08T11:43:27.894Z,2.00
2018-02-08T11:45:56.271Z,2.00
2018-02-08T11:48:24.340Z,2.00
2018-02-08T11:50:52.779Z,2.00
2018-02-08T11:53:20.593Z,2.00
2018-02-08T11:55:48.352Z,2.10
2018-02-08T11:58:16.217Z,2.00
2018-02-08T12:00:44.218Z,2.10
2018-02-08T12:03:12.684Z,2.10
2018-02-08T12:08:15.386Z,2.10
2018-02-08T12:10:43.205Z,2.00
2018-02-08T12:13:10.883Z,2.00
2018-02-08T12:15:38.647Z,1.90
2018-02-08T12:18:06.627Z,1.90
2018-02-08T12:20:34.459Z,1.80
2018-02-08T12:23:02.271Z,1.90
2018-02-08T12:25:30.008Z,1.90
2018-02-08T12:27:57.815Z,1.90
2018-02-08T12:30:26.569Z,2.00
2018-02-08T12:32:54.634Z,1.90
2018-02-08T12:35:23.013Z,2.10
2018-02-08T12:37:50.648Z,2.10
2018-02-08T12:40:18.432Z,2.00
2018-02-08T12:42:46.105Z,1.90
2018-02-08T12:45:13.961Z,1.80
2018-02-08T12:47:41.756Z,1.80
2018-02-08T12:50:10.307Z,1.80
2018-02-08T12:52:38.170Z,1.80
2018-02-08T12:55:06.080Z,1.80
2018-02-08T12:57:34.725Z,2.10
2018-02-08T13:00:02.482Z,2.10
2018-02-08T13:02:30.246Z,2.30
2018-02-08T13:04:58.516Z,2.40
2018-02-08T13:07:26.173Z,2.60
2018-02-08T13:09:54.460Z,2.70
2018-02-08T13:12:22.875Z,2.80
2018-02-08T13:14:51.553Z,2.60
2018-02-08T13:17:19.495Z,2.70
2018-02-08T13:19:47.200Z,2.60
2018-02-08T13:22:15.127Z,2.60
2018-02-08T13:24:43.618Z,2.70
2018-02-08T13:27:13.110Z,2.90
2018-02-08T13:29:40.974Z,2.90
2018-02-08T13:32:08.711Z,3.20
2018-02-08T13:34:36.406Z,3.80
2018-02-08T13:37:04.098Z,4.50
2018-02-08T13:42:35.726Z,6.80
2018-02-08T13:45:04.216Z,6.80
2018-02-08T13:47:32.860Z,7.30
2018-02-08T13:50:00.623Z,7.70
2018-02-08T13:55:45.694Z,9.20
2018-02-08T13:58:20.818Z,9.60
2018-02-08T14:00:52.105Z,10.00
2018-02-08T14:03:19.972Z,9.90
2018-02-08T14:05:47.754Z,9.50
2018-02-08T14:08:15.997Z,8.80
2018-02-08T14:10:44.457Z,9.30
2018-02-08T14:13:12.990Z,8.90
2018-02-08T14:15:40.800Z,8.90
2018-02-08T14:18:09.851Z,9.50
2018-02-08T14:20:37.749Z,9.50
2018-02-08T14:23:05.633Z,9.60
2018-02-08T14:25:34.092Z,9.90
2018-02-08T14:28:02.757Z,9.90
2018-02-08T14:30:30.478Z,9.70
2018-02-08T14:32:58.270Z,10.00
2018-02-08T14:35:25.967Z,10.00
2018-02-08T14:37:53.644Z,10.10
2018-02-08T14:40:23.083Z,9.80
2018-02-08T14:42:50.795Z,9.80
2018-02-08T14:45:18.465Z,9.50
2018-02-08T14:47:47.727Z,7.50
2018-02-08T14:50:15.788Z,7.50
2018-02-08T14:52:43.808Z,6.70
2018-02-08T14:55:12.333Z,5.30
2018-02-08T14:57:40.204Z,5.20
2018-02-08T15:00:08.275Z,4.80
2018-02-08T15:02:36.041Z,4.30
2018-02-08T15:05:03.807Z,4.00
2018-02-08T15:07:31.846Z,3.80
2018-02-08T15:09:59.503Z,3.60
2018-02-08T15:12:27.298Z,3.40
2018-02-08T15:14:55.440Z,3.20
2018-02-08T15:17:23.939Z,3.10
2018-02-08T15:19:51.713Z,3.00
2018-02-08T15:22:19.440Z,3.00
2018-02-08T15:24:47.900Z,2.60
2018-02-08T15:27:18.203Z,2.50
2018-02-08T15:29:45.940Z,2.50
2018-02-08T15:32:13.704Z,2.40
2018-02-08T15:34:42.006Z,2.40
2018-02-08T15:37:10.666Z,2.20
2018-02-08T15:39:38.430Z,2.10
2018-02-08T15:42:06.302Z,2.00
2018-02-08T15:44:34.033Z,1.90
2018-02-08T15:47:01.821Z,1.80
2018-02-08T15:49:29.989Z,1.80
2018-02-08T15:51:58.234Z,1.70
2018-02-08T15:54:26.135Z,1.60
2018-02-08T15:56:54.103Z,1.50
2018-02-08T15:59:21.906Z,1.50
2018-02-08T16:01:49.628Z,1.40
2018-02-08T16:04:17.315Z,1.30
2018-02-08T16:06:45.157Z,1.20
2018-02-08T16:09:12.924Z,1.10
2018-02-08T16:11:40.695Z,1.10
2018-02-08T16:14:09.420Z,1.10
2018-02-08T16:16:38.006Z,1.00
2018-02-08T16:19:06.456Z,0.90
2018-02-08T16:21:34.113Z,0.90
2018-02-08T16:24:01.829Z,0.80
2018-02-08T16:26:29.616Z,0.80
2018-02-08T16:28:57.336Z,0.80
2018-02-08T16:31:26.227Z,0.70
2018-02-08T16:33:54.757Z,0.60
2018-02-08T16:36:23.643Z,0.60
2018-02-08T16:38:52.329Z,0.60
2018-02-08T16:41:20.582Z,0.60
2018-02-08T16:43:48.577Z,0.50
2018-02-08T16:46:17.314Z,0.50
2018-02-08T16:48:46.563Z,0.40
2018-02-08T16:51:14.353Z,0.40
2018-02-08T16:53:42.963Z,0.40
2018-02-08T16:56:11.765Z,0.40
2018-02-08T16:58:39.505Z,0.40
2018-02-08T17:01:07.927Z,0.30
2018-02-08T17:03:35.557Z,0.30
2018-02-08T17:06:03.315Z,0.20
2018-02-08T17:08:31.220Z,0.20
2018-02-08T17:10:58.985Z,0.20
2018-02-08T17:13:26.850Z,0.20
2018-02-08T17:15:54.551Z,0.20
2018-02-08T17:18:22.985Z,0.10
2018-02-08T17:20:50.792Z,0.10
2018-02-08T17:23:18.621Z,0.20
2018-02-08T17:25:46.382Z,0.20
2018-02-08T17:28:14.070Z,0.10
2018-02-08T17:30:43.346Z,0.10
2018-02-08T17:33:11.459Z,0.10
2018-02-08T17:35:39.865Z,0.10
2018-02-08T17:38:07.657Z,0.10
2018-02-08T17:40:35.416Z,0.10
2018-02-08T17:43:03.185Z,0.10
2018-02-08T17:45:31.005Z,0.10
2018-02-08T17:47:58.741Z,0.10
2018-02-08T17:50:26.576Z,0.00
2018-02-08T17:52:54.381Z,0.00
2018-02-08T17:55:23.036Z,-0.10
2018-02-08T17:57:51.385Z,-0.10
2018-02-08T18:00:19.173Z,-0.10
2018-02-08T18:02:47.033Z,-0.10
2018-02-08T18:05:15.809Z,-0.20
2018-02-08T18:07:43.456Z,-0.20
2018-02-08T18:10:11.288Z,-0.20
2018-02-08T18:12:39.877Z,-0.20
2018-02-08T18:15:08.290Z,-0.30
2018-02-08T18:17:36.241Z,-0.30
2018-02-08T18:20:04.113Z,-0.30
2018-02-08T18:22:32.157Z,-0.20
2018-02-08T18:25:00.794Z,-0.20
2018-02-08T18:27:29.176Z,-0.30
2018-02-08T18:29:57.000Z,-0.20
2018-02-08T18:32:25.117Z,-0.20
2018-02-08T18:34:52.925Z,-0.20
2018-02-08T18:37:20.624Z,-0.20
2018-02-08T18:39:48.499Z,-0.20
2018-02-08T18:42:16.158Z,-0.30
2018-02-08T18:44:43.867Z,-0.30
2018-02-08T18:47:12.570Z,-0.40
2018-02-08T18:49:40.234Z,-0.30
2018-02-08T18:52:08.045Z,-0.40
2018-02-08T18:54:35.897Z,-0.40
2018-02-08T18:57:03.662Z,-0.40
2018-02-08T18:59:32.168Z,-0.40
2018-02-08T19:02:01.441Z,-0.50
2018-02-08T19:04:29.203Z,-0.50
2018-02-08T19:06:57.923Z,-0.50
2018-02-08T19:09:25.574Z,-0.50
2018-02-08T19:11:53.414Z,-0.60
2018-02-08T19:14:22.101Z,-0.60
2018-02-08T19:16:49.769Z,-0.60
2018-02-08T19:19:17.882Z,-0.60
2018-02-08T19:21:46.516Z,-0.60
2018-02-08T19:24:14.381Z,-0.70
2018-02-08T19:26:42.215Z,-0.60
2018-02-08T19:29:09.870Z,-0.70
2018-02-08T19:31:37.876Z,-0.70
2018-02-08T19:34:05.858Z,-0.70
2018-02-08T19:36:33.656Z,-0.70
2018-02-08T19:39:02.106Z,-0.80
2018-02-08T19:41:29.850Z,-0.80
2018-02-08T19:43:58.226Z,-0.80
2018-02-08T19:46:26.161Z,-0.80
2018-02-08T19:48:54.064Z,-0.80
2018-02-08T19:51:21.827Z,-0.80
2018-02-08T19:53:49.490Z,-0.80
2018-02-08T19:56:17.252Z,-0.90
2018-02-08T19:58:44.947Z,-0.90
2018-02-08T20:01:13.434Z,-0.80
2018-02-08T20:03:42.701Z,-0.80
2018-02-08T20:06:11.021Z,-0.80
2018-02-08T20:08:40.066Z,-0.70
2018-02-08T20:11:07.933Z,-0.70
2018-02-08T20:13:36.646Z,-0.70
2018-02-08T20:16:04.310Z,-0.80
2018-02-08T20:18:32.868Z,-0.90
2018-02-08T20:21:01.242Z,-0.90
2018-02-08T20:23:29.807Z,-0.90
2018-02-08T20:25:57.577Z,-1.00
2018-02-08T20:28:25.521Z,-1.00
2018-02-08T20:30:59.633Z,-1.10
2018-02-08T20:33:27.348Z,-1.10
2018-02-08T20:35:55.360Z,-1.10
2018-02-08T20:38:23.490Z,-1.10
2018-02-08T20:40:52.254Z,-1.20
2018-02-08T20:43:26.427Z,-1.20
2018-02-08T20:45:54.326Z,-1.20
2018-02-08T20:48:22.038Z,-1.20
2018-02-08T20:50:50.465Z,-1.30
2018-02-08T20:53:18.860Z,-1.30
2018-02-08T20:55:46.722Z,-1.30
2018-02-08T20:58:15.295Z,-1.30
2018-02-08T21:00:43.371Z,-1.30
2018-02-08T21:03:11.537Z,-1.30
2018-02-08T21:05:39.493Z,-1.40
2018-02-08T21:08:07.336Z,-1.40
2018-02-08T21:10:35.137Z,-1.40
2018-02-08T21:13:02.897Z,-1.50
2018-02-08T21:15:30.609Z,-1.50
2018-02-08T21:17:59.226Z,-1.50
2018-02-08T21:20:27.215Z,-1.50
2018-02-08T21:22:54.937Z,-1.50
2018-02-08T21:25:22.738Z,-1.50
2018-02-08T21:27:50.431Z,-1.50
2018-02-08T21:30:18.980Z,-1.60
2018-02-08T21:32:47.352Z,-1.50
2018-02-08T21:35:15.076Z,-1.60
2018-02-08T21:37:43.642Z,-1.50
2018-02-08T21:40:12.681Z,-1.60
2018-02-08T21:42:40.358Z,-1.60
2018-02-08T21:45:08.182Z,-1.60
2018-02-08T21:47:35.855Z,-1.60
2018-02-08T21:50:04.262Z,-1.60
2018-02-08T21:52:32.108Z,-1.60
2018-02-08T21:54:59.905Z,-1.70
2018-02-08T21:57:28.307Z,-1.70
2018-02-08T21:59:56.096Z,-1.80
2018-02-08T22:02:24.003Z,-1.80
2018-02-08T22:04:51.670Z,-1.80
2018-02-08T22:07:20.167Z,-1.80
2018-02-08T22:09:47.916Z,-1.80
2018-02-08T22:12:15.602Z,-1.80
2018-02-08T22:14:44.355Z,-1.80
2018-02-08T22:17:12.018Z,-1.80
2018-02-08T22:19:40.098Z,-1.80
2018-02-08T22:22:07.880Z,-1.80
2018-02-08T22:24:36.848Z,-1.80
2018-02-08T22:27:04.614Z,-1.80
2018-02-08T22:29:32.346Z,-1.80
2018-02-08T22:32:00.031Z,-1.80
2018-02-08T22:34:27.895Z,-1.90
2018-02-08T22:36:55.964Z,-1.90
2018-02-08T22:39:23.624Z,-1.90
2018-02-08T22:41:51.289Z,-1.90
2018-02-08T22:44:19.158Z,-1.90
2018-02-08T22:46:46.903Z,-1.90
2018-02-08T22:49:14.577Z,-2.00
2018-02-08T22:51:42.289Z,-2.00
2018-02-08T22:54:11.081Z,-2.00
2018-02-08T22:56:41.041Z,-2.00
2018-02-08T22:59:08.804Z,-2.00
2018-02-08T23:01:36.495Z,-2.00
2018-02-08T23:04:04.982Z,-2.00
2018-02-08T23:06:33.529Z,-2.00
2018-02-08T23:09:01.292Z,-2.10
2018-02-08T23:11:29.059Z,-2.10
2018-02-08T23:13:56.863Z,-2.10
2018-02-08T23:16:25.413Z,-2.10
2018-02-08T23:18:53.677Z,-2.10
2018-02-08T23:21:21.374Z,-2.10
2018-02-08T23:23:49.777Z,-2.10
2018-02-08T23:26:17.500Z,-2.10
2018-02-08T23:28:45.356Z,-2.10
2018-02-08T23:31:13.069Z,-2.20
2018-02-08T23:33:40.882Z,-2.20
2018-02-08T23:36:11.327Z,-2.10
2018-02-08T23:38:40.401Z,-2.10
2018-02-08T23:41:08.109Z,-2.10
2018-02-08T23:43:36.050Z,-2.10
2018-02-08T23:46:03.783Z,-2.10
2018-02-08T23:48:31.546Z,-2.20
2018-02-08T23:50:59.439Z,-2.10
2018-02-08T23:53:28.128Z,-2.20
2018-02-08T23:55:56.477Z,-2.20
2018-02-08T23:58:24.117Z,-2.20
